createdAt,value
2022-08-22T00:03:02.138Z,22.00
2022-08-22T00:03:10.965Z,19.80
2022-08-22T00:04:20.154Z,18.70
2022-08-22T00:09:29.927Z,18.60
2022-08-22T00:12:09.918Z,18.50
2022-08-22T00:14:47.275Z,18.50
2022-08-22T00:17:55.375Z,18.60
2022-08-22T00:20:34.885Z,18.50
2022-08-22T00:23:19.433Z,18.50
2022-08-22T00:26:03.452Z,18.40
2022-08-22T00:28:53.413Z,18.30
2022-08-22T00:31:35.118Z,18.20
2022-08-22T00:34:05.061Z,18.20
2022-08-22T00:36:52.063Z,18.20
2022-08-22T00:39:28.786Z,18.20
2022-08-22T00:42:29.115Z,18.20
2022-08-22T00:45:35.715Z,18.10
2022-08-22T00:48:20.965Z,18.00
2022-08-22T00:51:24.793Z,17.90
2022-08-22T00:54:19.464Z,17.80
2022-08-22T00:57:08.684Z,17.80
2022-08-22T00:59:41.260Z,17.80
2022-08-22T01:02:41.902Z,17.80
2022-08-22T01:05:30.005Z,17.70
2022-08-22T01:07:59.871Z,17.70
2022-08-22T01:10:45.134Z,17.70
2022-08-22T01:13:43.527Z,17.80
2022-08-22T01:16:47.806Z,17.70
2022-08-22T01:19:43.144Z,17.80
2022-08-22T01:22:47.150Z,17.70
2022-08-22T01:25:26.434Z,17.60
2022-08-22T01:28:05.673Z,17.60
2022-08-22T01:30:35.824Z,17.60
2022-08-22T01:33:43.125Z,17.60
2022-08-22T01:36:12.656Z,17.50
2022-08-22T01:38:45.041Z,17.50
2022-08-22T01:41:29.901Z,17.40
2022-08-22T01:46:45.480Z,17.30
2022-08-22T01:49:18.623Z,17.30
2022-08-22T01:51:55.533Z,17.30
2022-08-22T01:59:42.223Z,17.30
2022-08-22T02:02:24.054Z,17.30
2022-08-22T02:04:53.518Z,17.30
2022-08-22T02:07:31.884Z,17.20
2022-08-22T02:10:34.870Z,17.20
2022-08-22T02:13:42.775Z,17.20
2022-08-22T02:16:16.450Z,17.10
2022-08-22T02:19:14.189Z,17.10
2022-08-22T02:22:02.118Z,17.00
2022-08-22T02:24:51.032Z,17.10
2022-08-22T02:27:31.591Z,17.20
2022-08-22T02:30:12.778Z,17.10
2022-08-22T02:32:59.671Z,17.20
2022-08-22T02:35:52.124Z,17.20
2022-08-22T02:38:31.491Z,17.20
2022-08-22T02:41:16.429Z,17.30
2022-08-22T02:43:45.851Z,17.30
2022-08-22T02:46:47.006Z,17.30
2022-08-22T02:49:43.955Z,17.30
2022-08-22T02:52:42.999Z,17.30
2022-08-22T02:55:20.008Z,17.30
2022-08-22T02:58:05.442Z,17.30
2022-08-22T03:00:45.474Z,17.10
2022-08-22T03:03:24.148Z,17.00
2022-08-22T03:06:01.323Z,17.00
2022-08-22T03:08:33.061Z,17.00
2022-08-22T03:11:09.117Z,17.00
2022-08-22T03:13:51.236Z,16.90
2022-08-22T03:17:00.024Z,16.80
2022-08-22T03:19:48.794Z,16.80
2022-08-22T03:22:42.059Z,16.70
2022-08-22T03:25:36.077Z,16.70
2022-08-22T03:28:10.422Z,16.70
2022-08-22T03:30:43.291Z,16.70
2022-08-22T03:33:18.190Z,16.60
2022-08-22T03:35:44.982Z,16.70
2022-08-22T03:41:06.023Z,16.70
2022-08-22T03:43:50.800Z,16.60
2022-08-22T03:46:39.107Z,16.70
2022-08-22T03:49:25.218Z,16.60
2022-08-22T03:51:54.924Z,16.60
2022-08-22T03:54:46.515Z,16.60
2022-08-22T03:57:22.462Z,16.60
2022-08-22T04:00:21.413Z,16.50
2022-08-22T04:03:00.079Z,16.60
2022-08-22T04:05:47.986Z,16.50
2022-08-22T04:08:52.211Z,16.50
2022-08-22T04:11:48.873Z,16.60
2022-08-22T04:14:37.246Z,16.60
2022-08-22T04:17:35.179Z,16.60
2022-08-22T04:20:16.603Z,16.50
2022-08-22T04:22:59.859Z,16.40
2022-08-22T04:25:47.538Z,16.40
2022-08-22T04:28:22.198Z,16.40
2022-08-22T04:33:31.644Z,16.40
2022-08-22T04:36:15.750Z,16.40
2022-08-22T04:38:58.115Z,16.40
2022-08-22T04:42:11.143Z,16.40
2022-08-22T04:44:56.871Z,16.40
2022-08-22T04:47:38.566Z,16.40
2022-08-22T04:50:43.261Z,16.40
2022-08-22T04:53:47.788Z,16.40
2022-08-22T04:56:54.893Z,16.60
2022-08-22T04:59:24.287Z,16.60
2022-08-22T05:02:00.378Z,16.60
2022-08-22T05:04:31.885Z,16.70
2022-08-22T05:07:13.662Z,16.70
2022-08-22T05:09:47.435Z,16.70
2022-08-22T05:12:22.246Z,16.70
2022-08-22T05:15:01.334Z,16.90
2022-08-22T05:17:31.295Z,17.00
2022-08-22T05:20:03.993Z,17.10
2022-08-22T05:22:36.550Z,17.20
2022-08-22T05:25:09.516Z,17.30
2022-08-22T05:27:41.330Z,17.40
2022-08-22T05:30:13.487Z,17.60
2022-08-22T05:33:05.302Z,17.60
2022-08-22T05:35:39.248Z,17.80
2022-08-22T05:38:10.145Z,17.90
2022-08-22T05:40:37.910Z,17.90
2022-08-22T05:43:06.557Z,18.00
2022-08-22T05:45:35.366Z,18.10
2022-08-22T05:48:35.144Z,18.10
2022-08-22T05:51:21.404Z,18.20
2022-08-22T05:53:55.455Z,18.30
2022-08-22T05:56:35.273Z,18.30
2022-08-22T05:59:08.614Z,18.30
2022-08-22T06:01:51.958Z,18.40
2022-08-22T06:04:21.608Z,18.40
2022-08-22T06:06:55.215Z,18.40
2022-08-22T06:09:39.917Z,18.40
2022-08-22T06:12:21.700Z,18.50
2022-08-22T06:15:01.141Z,18.70
2022-08-22T06:17:34.718Z,18.80
2022-08-22T06:20:05.955Z,18.90
2022-08-22T06:22:37.968Z,19.10
2022-08-22T06:25:13.735Z,19.30
2022-08-22T06:27:41.673Z,19.40
2022-08-22T06:30:12.807Z,19.60
2022-08-22T06:32:59.204Z,19.70
2022-08-22T06:35:55.173Z,19.90
2022-08-22T06:38:29.563Z,20.10
2022-08-22T06:41:00.512Z,20.30
2022-08-22T06:43:38.579Z,20.50
2022-08-22T06:46:06.889Z,20.80
2022-08-22T06:48:35.556Z,20.90
2022-08-22T06:51:06.345Z,21.00
2022-08-22T06:53:37.074Z,21.20
2022-08-22T06:56:07.377Z,21.30
2022-08-22T06:58:42.710Z,21.20
2022-08-22T07:01:17.552Z,21.20
2022-08-22T07:03:53.922Z,21.10
2022-08-22T07:06:35.124Z,21.10
2022-08-22T07:09:07.077Z,21.20
2022-08-22T07:11:39.488Z,21.20
2022-08-22T07:14:11.233Z,21.30
2022-08-22T07:16:55.134Z,21.20
2022-08-22T07:19:26.841Z,21.00
2022-08-22T07:21:55.008Z,21.10
2022-08-22T07:24:26.684Z,21.20
2022-08-22T07:27:16.444Z,21.30
2022-08-22T07:29:46.306Z,21.40
2022-08-22T07:32:42.090Z,21.40
2022-08-22T07:35:17.805Z,21.60
2022-08-22T07:38:01.048Z,21.90
2022-08-22T07:40:40.491Z,22.10
2022-08-22T07:43:13.390Z,22.30
2022-08-22T07:46:19.253Z,22.60
2022-08-22T07:49:08.217Z,22.70
2022-08-22T07:51:45.414Z,22.70
2022-08-22T07:54:15.505Z,22.90
2022-08-22T07:56:56.491Z,22.90
2022-08-22T07:59:24.346Z,23.10
2022-08-22T08:01:54.550Z,23.10
2022-08-22T08:04:26.171Z,23.10
2022-08-22T08:06:57.589Z,23.20
2022-08-22T08:09:28.290Z,23.50
2022-08-22T08:11:55.363Z,23.70
2022-08-22T08:14:24.615Z,23.70
2022-08-22T08:17:05.991Z,23.90
2022-08-22T08:19:35.919Z,23.90
2022-08-22T08:22:04.728Z,23.70
2022-08-22T08:24:41.192Z,23.70
2022-08-22T08:27:33.997Z,24.00
2022-08-22T08:30:15.099Z,24.20
2022-08-22T08:32:44.363Z,24.20
2022-08-22T08:35:23.820Z,24.10
2022-08-22T08:38:00.682Z,23.90
2022-08-22T08:40:33.232Z,23.70
2022-08-22T08:43:31.223Z,23.70
2022-08-22T08:45:59.113Z,23.70
2022-08-22T08:48:54.918Z,23.70
2022-08-22T08:52:02.902Z,23.70
2022-08-22T08:54:55.702Z,23.70
2022-08-22T08:57:51.502Z,23.80
2022-08-22T09:00:29.063Z,23.90
2022-08-22T09:03:30.673Z,24.00
2022-08-22T09:06:16.764Z,24.20
2022-08-22T09:09:11.085Z,24.40
2022-08-22T09:12:23.472Z,24.40
2022-08-22T09:14:56.391Z,24.40
2022-08-22T09:17:33.938Z,24.50
2022-08-22T09:20:17.919Z,24.80
2022-08-22T09:23:04.796Z,25.20
2022-08-22T09:25:48.473Z,25.60
2022-08-22T09:28:31.362Z,26.00
2022-08-22T09:31:16.520Z,26.10
2022-08-22T09:33:53.061Z,26.10
2022-08-22T09:36:45.936Z,25.90
2022-08-22T09:39:26.036Z,25.50
2022-08-22T09:42:08.075Z,25.20
2022-08-22T09:44:51.568Z,25.10
2022-08-22T09:47:25.250Z,24.90
2022-08-22T09:50:29.645Z,24.80
2022-08-22T09:53:10.571Z,24.80
2022-08-22T09:55:46.656Z,24.80
2022-08-22T09:58:42.440Z,25.00
2022-08-22T10:01:22.283Z,25.00
2022-08-22T10:04:06.961Z,25.20
2022-08-22T10:06:45.321Z,25.20
2022-08-22T10:09:54.807Z,24.90
2022-08-22T10:13:02.874Z,24.70
2022-08-22T10:15:44.927Z,24.40
2022-08-22T10:18:44.049Z,24.30
2022-08-22T10:21:38.391Z,24.30
2022-08-22T10:24:25.231Z,24.40
2022-08-22T10:27:02.155Z,24.50
2022-08-22T10:29:51.239Z,24.80
2022-08-22T10:32:38.493Z,25.20
2022-08-22T10:35:25.590Z,25.60
2022-08-22T10:38:04.776Z,25.80
2022-08-22T10:40:43.998Z,25.90
2022-08-22T10:44:04.133Z,26.10
2022-08-22T10:46:39.030Z,26.30
2022-08-22T10:49:28.376Z,26.60
2022-08-22T10:52:06.522Z,26.70
2022-08-22T10:55:10.893Z,26.70
2022-08-22T10:57:37.544Z,26.80
2022-08-22T11:00:32.711Z,26.80
2022-08-22T11:03:15.169Z,26.80
2022-08-22T11:05:50.901Z,26.70
2022-08-22T11:08:20.254Z,26.60
2022-08-22T11:11:09.114Z,26.80
2022-08-22T11:13:53.810Z,27.00
2022-08-22T11:16:42.005Z,27.30
2022-08-22T11:19:14.667Z,27.70
2022-08-22T11:21:45.953Z,27.90
2022-08-22T11:24:35.557Z,28.10
2022-08-22T11:27:42.235Z,28.20
2022-08-22T11:30:18.478Z,28.40
2022-08-22T11:35:25.964Z,28.80
2022-08-22T11:38:02.959Z,28.90
2022-08-22T11:40:59.416Z,28.90
2022-08-22T11:44:03.771Z,29.00
2022-08-22T11:46:36.659Z,28.60
2022-08-22T11:49:32.926Z,28.50
2022-08-22T11:52:06.234Z,28.30
2022-08-22T11:54:58.408Z,28.20
2022-08-22T11:57:35.342Z,28.00
2022-08-22T12:00:18.121Z,28.10
2022-08-22T12:03:24.981Z,28.30
2022-08-22T12:06:15.536Z,28.60
2022-08-22T12:09:02.450Z,28.50
2022-08-22T12:11:38.400Z,28.70
2022-08-22T12:14:15.755Z,28.80
2022-08-22T12:17:11.312Z,28.90
2022-08-22T12:20:15.025Z,28.80
2022-08-22T12:23:04.401Z,28.80
2022-08-22T12:25:37.489Z,28.90
2022-08-22T12:28:29.464Z,28.80
2022-08-22T12:31:33.867Z,28.60
2022-08-22T12:34:25.382Z,29.00
2022-08-22T12:37:20.972Z,29.20
2022-08-22T12:40:17.763Z,28.90
2022-08-22T12:45:37.496Z,28.80
2022-08-22T12:48:34.638Z,28.70
2022-08-22T12:51:20.028Z,28.80
2022-08-22T12:54:15.483Z,28.80
2022-08-22T12:57:23.974Z,28.80
2022-08-22T12:59:58.042Z,29.10
2022-08-22T13:02:30.793Z,29.20
2022-08-22T13:05:03.194Z,29.40
2022-08-22T13:07:34.502Z,29.50
2022-08-22T13:10:35.251Z,29.50
2022-08-22T13:13:11.852Z,29.50
2022-08-22T13:18:30.008Z,29.50
2022-08-22T13:21:01.019Z,29.50
2022-08-22T13:23:43.573Z,29.60
2022-08-22T13:26:34.423Z,29.60
2022-08-22T13:29:25.693Z,29.20
2022-08-22T13:32:00.381Z,29.30
2022-08-22T13:34:29.955Z,29.50
2022-08-22T13:37:03.288Z,29.70
2022-08-22T13:39:40.981Z,29.70
2022-08-22T13:42:20.380Z,29.80
2022-08-22T13:45:02.441Z,29.90
2022-08-22T13:47:32.506Z,30.00
2022-08-22T13:50:07.684Z,30.00
2022-08-22T13:52:55.228Z,29.90
2022-08-22T13:55:54.836Z,29.90
2022-08-22T13:58:40.267Z,29.80
2022-08-22T14:01:10.309Z,29.70
2022-08-22T14:03:52.126Z,29.60
2022-08-22T14:06:46.482Z,29.60
2022-08-22T14:09:40.178Z,29.60
2022-08-22T14:12:56.362Z,29.60
2022-08-22T14:15:45.476Z,29.60
2022-08-22T14:18:30.360Z,29.50
2022-08-22T14:21:27.722Z,29.50
2022-08-22T14:24:03.243Z,29.50
2022-08-22T14:26:37.366Z,29.30
2022-08-22T14:29:16.497Z,29.20
2022-08-22T14:32:06.258Z,29.20
2022-08-22T14:34:41.702Z,28.90
2022-08-22T14:37:23.613Z,28.80
2022-08-22T14:39:59.552Z,28.80
2022-08-22T14:42:45.870Z,28.80
2022-08-22T14:45:24.723Z,28.70
2022-08-22T14:48:30.556Z,29.00
2022-08-22T14:51:03.914Z,29.30
2022-08-22T14:53:34.722Z,29.60
2022-08-22T14:56:22.078Z,29.50
2022-08-22T14:59:04.562Z,29.50
2022-08-22T15:01:35.073Z,29.40
2022-08-22T15:04:08.348Z,29.20
2022-08-22T15:06:48.170Z,28.90
2022-08-22T15:09:33.009Z,28.50
2022-08-22T15:12:03.545Z,28.50
2022-08-22T15:14:45.567Z,28.40
2022-08-22T15:17:37.373Z,28.30
2022-08-22T15:20:28.748Z,28.20
2022-08-22T15:23:02.779Z,28.10
2022-08-22T15:25:40.987Z,28.00
2022-08-22T15:28:20.415Z,28.10
2022-08-22T15:30:58.605Z,28.00
2022-08-22T15:33:40.124Z,27.90
2022-08-22T15:36:20.713Z,27.80
2022-08-22T15:38:50.555Z,27.80
2022-08-22T15:41:37.245Z,27.90
2022-08-22T15:44:09.598Z,29.20
2022-08-22T15:46:58.836Z,27.90
2022-08-22T15:49:30.176Z,27.90
2022-08-22T15:52:00.882Z,27.90
2022-08-22T15:54:42.654Z,27.80
2022-08-22T16:00:01.089Z,27.70
2022-08-22T16:02:34.927Z,27.60
2022-08-22T16:05:11.515Z,27.50
2022-08-22T16:08:08.464Z,27.40
2022-08-22T16:10:38.499Z,27.40
2022-08-22T16:13:26.410Z,27.40
2022-08-22T16:16:02.289Z,27.30
2022-08-22T16:18:49.222Z,27.40
2022-08-22T16:21:17.883Z,27.50
2022-08-22T16:23:53.823Z,27.60
2022-08-22T16:26:24.879Z,27.50
2022-08-22T16:28:58.925Z,27.50
2022-08-22T16:31:28.956Z,27.40
2022-08-22T16:34:32.896Z,27.30
2022-08-22T16:37:08.776Z,27.40
2022-08-22T16:40:01.474Z,27.40
2022-08-22T16:42:40.577Z,27.40
2022-08-22T16:45:31.634Z,27.40
2022-08-22T16:47:59.288Z,27.40
2022-08-22T16:50:34.166Z,27.30
2022-08-22T16:55:31.265Z,27.40
2022-08-22T16:58:44.962Z,27.30
2022-08-22T17:01:31.282Z,27.30
2022-08-22T17:04:34.529Z,27.30
2022-08-22T17:09:46.726Z,27.20
2022-08-22T17:15:01.803Z,27.20
2022-08-22T17:20:01.526Z,27.10
2022-08-22T17:23:13.478Z,27.00
2022-08-22T17:26:11.605Z,27.00
2022-08-22T17:29:16.158Z,27.00
2022-08-22T17:31:54.392Z,26.90
2022-08-22T17:34:37.655Z,27.00
2022-08-22T17:37:33.888Z,26.90
2022-08-22T17:40:36.645Z,26.80
2022-08-22T17:43:48.936Z,26.80
2022-08-22T17:46:55.625Z,26.70
2022-08-22T17:49:28.713Z,26.60
2022-08-22T17:54:37.567Z,26.40
2022-08-22T17:57:28.813Z,26.30
2022-08-22T18:00:02.055Z,26.20
2022-08-22T18:02:34.072Z,26.10
2022-08-22T18:05:05.271Z,25.90
2022-08-22T18:07:41.187Z,25.80
2022-08-22T18:10:27.453Z,25.70
2022-08-22T18:13:06.208Z,25.50
2022-08-22T18:15:45.822Z,25.50
2022-08-22T18:18:30.477Z,25.40
2022-08-22T18:21:05.393Z,25.30
2022-08-22T18:23:49.190Z,25.10
2022-08-22T18:26:35.108Z,25.00
2022-08-22T18:29:11.422Z,24.80
2022-08-22T18:32:02.468Z,24.60
2022-08-22T18:34:45.796Z,24.40
2022-08-22T18:37:15.852Z,24.40
2022-08-22T18:39:47.436Z,24.30
2022-08-22T18:42:33.206Z,24.30
2022-08-22T18:44:59.892Z,24.40
2022-08-22T18:47:34.499Z,24.50
2022-08-22T18:50:24.496Z,24.60
2022-08-22T18:56:04.048Z,24.80
2022-08-22T18:58:45.479Z,24.90
2022-08-22T19:01:42.031Z,24.90
2022-08-22T19:04:17.502Z,24.80
2022-08-22T19:09:20.777Z,24.50
2022-08-22T19:14:52.018Z,24.30
2022-08-22T19:17:33.723Z,24.00
2022-08-22T19:20:26.058Z,23.90
2022-08-22T19:23:32.753Z,23.80
2022-08-22T19:26:24.463Z,23.70
2022-08-22T19:28:54.712Z,23.60
2022-08-22T19:31:36.496Z,23.60
2022-08-22T19:34:32.527Z,23.60
2022-08-22T19:37:32.187Z,23.50
2022-08-22T19:40:05.236Z,23.30
2022-08-22T19:42:34.930Z,23.20
2022-08-22T19:45:04.894Z,23.20
2022-08-22T19:47:35.364Z,23.20
2022-08-22T19:50:16.999Z,23.10
2022-08-22T19:52:57.579Z,23.00
2022-08-22T19:55:27.706Z,22.90
2022-08-22T19:58:30.248Z,22.90
2022-08-22T20:01:28.816Z,22.80
2022-08-22T20:04:04.791Z,22.60
2022-08-22T20:06:53.293Z,22.50
2022-08-22T20:09:57.770Z,22.40
2022-08-22T20:12:55.027Z,22.20
2022-08-22T20:15:24.779Z,22.10
2022-08-22T20:20:58.970Z,22.00
2022-08-22T20:25:57.084Z,21.90
2022-08-22T20:28:49.726Z,21.80
2022-08-22T20:31:26.932Z,21.80
2022-08-22T20:34:03.568Z,21.80
2022-08-22T20:39:03.342Z,21.90
2022-08-22T20:44:04.571Z,21.90
2022-08-22T20:46:47.674Z,21.90
2022-08-22T20:49:31.452Z,22.00
2022-08-22T20:52:20.133Z,22.00
2022-08-22T20:55:03.774Z,22.00
2022-08-22T20:57:30.911Z,22.00
2022-08-22T21:00:13.220Z,22.00
2022-08-22T21:02:51.182Z,22.00
2022-08-22T21:05:22.434Z,21.90
2022-08-22T21:08:13.417Z,21.90
2022-08-22T21:11:00.384Z,21.80
2022-08-22T21:13:34.735Z,21.70
2022-08-22T21:16:15.642Z,21.70
2022-08-22T21:18:47.080Z,21.60
2022-08-22T21:21:18.383Z,21.60
2022-08-22T21:24:00.995Z,21.70
2022-08-22T21:26:46.151Z,21.70
2022-08-22T21:31:51.181Z,21.70
2022-08-22T21:34:24.439Z,21.60
2022-08-22T21:36:53.793Z,21.60
2022-08-22T21:39:30.722Z,21.60
2022-08-22T21:42:00.161Z,21.60
2022-08-22T21:44:31.539Z,21.60
2022-08-22T21:47:30.606Z,21.60
2022-08-22T21:50:06.057Z,21.50
2022-08-22T21:52:38.995Z,21.40
2022-08-22T21:55:34.845Z,21.40
2022-08-22T21:58:35.621Z,21.40
2022-08-22T22:01:31.669Z,21.30
2022-08-22T22:11:21.113Z,21.30
2022-08-22T22:16:22.115Z,21.10
2022-08-22T22:18:48.879Z,21.00
2022-08-22T22:21:16.882Z,21.00
2022-08-22T22:28:41.172Z,20.80
2022-08-22T22:31:08.863Z,20.90
2022-08-22T22:33:38.936Z,20.90
2022-08-22T22:36:18.352Z,20.80
2022-08-22T22:38:46.095Z,20.90
2022-08-22T22:43:40.092Z,20.80
2022-08-22T22:46:06.780Z,20.60
2022-08-22T22:51:08.999Z,20.60
2022-08-22T22:56:09.714Z,20.50
2022-08-22T22:58:37.542Z,20.40
2022-08-22T23:01:17.167Z,20.40
2022-08-22T23:03:44.974Z,20.30
2022-08-22T23:08:44.384Z,20.30
2022-08-22T23:16:17.433Z,20.20
2022-08-22T23:18:45.317Z,20.00
2022-08-22T23:21:19.647Z,19.90
2022-08-22T23:23:47.915Z,19.90
2022-08-22T23:26:15.771Z,19.80
2022-08-22T23:28:42.593Z,19.80
2022-08-22T23:31:10.736Z,19.70
2022-08-22T23:36:19.081Z,19.60
2022-08-22T23:38:46.988Z,19.60
2022-08-22T23:41:15.152Z,19.50
2022-08-22T23:43:44.859Z,19.50
2022-08-22T23:46:13.085Z,19.40
2022-08-22T23:48:40.749Z,19.50
2022-08-22T23:51:09.028Z,19.40
2022-08-22T23:53:36.577Z,19.30
2022-08-22T23:56:27.902Z,19.30
2022-08-22T23:58:54.720Z,19.40
